Time;durP1;ratioP1;P1;durP2;ratioP2;P2;SDS_P1;SDS_P2;PMS_P1;PMS_P2;Temp;Humidity;BMP_temperature;BMP_pressure;BME280_temperature;BME280_humidity;BME280_pressure;Samples;Min_cycle;Max_cycle;Signal;HPM_P1;HPM_P2
2023/09/06 00:00:55;;;;;;;2.03;1.60;;;23.30;72.00;;;;;;5000039;27;20040;-16
2023/09/06 00:03:21;;;;;;;2.83;1.73;;;23.20;72.20;;;;;;4999520;27;20270;-15
2023/09/06 00:05:47;;;;;;;2.10;1.50;;;23.20;72.30;;;;;;5016710;28;20124;-15
2023/09/06 00:08:16;;;;;;;2.83;1.70;;;23.20;72.40;;;;;;5010732;27;20021;-16
2023/09/06 00:10:45;;;;;;;2.00;1.48;;;23.10;72.80;;;;;;5008115;28;20025;-16
2023/09/06 00:13:12;;;;;;;2.13;1.50;;;23.10;73.20;;;;;;5002233;27;22717;-14
2023/09/06 00:15:38;;;;;;;1.98;1.60;;;23.00;72.90;;;;;;5017119;27;20468;-14
2023/09/06 00:18:08;;;;;;;1.90;1.40;;;23.00;72.90;;;;;;4993005;27;20183;-15
2023/09/06 00:20:36;;;;;;;2.22;1.50;;;22.90;73.10;;;;;;5016256;28;20030;-14
2023/09/06 00:23:09;;;;;;;3.93;1.50;;;22.90;73.30;;;;;;5010215;28;20041;-15
2023/09/06 00:25:35;;;;;;;2.92;1.60;;;22.80;73.90;;;;;;5008032;28;20021;-14
2023/09/06 00:28:03;;;;;;;2.38;1.40;;;22.80;73.40;;;;;;5005111;27;20041;-15
2023/09/06 00:30:29;;;;;;;2.20;1.60;;;22.80;73.50;;;;;;5009359;28;20033;-17
2023/09/06 00:32:55;;;;;;;2.22;1.40;;;22.80;73.50;;;;;;4988827;28;20035;-15
2023/09/06 00:35:25;;;;;;;2.13;1.60;;;22.70;73.50;;;;;;4980491;28;20500;-16
2023/09/06 00:37:54;;;;;;;3.92;1.50;;;22.70;73.70;;;;;;5013776;27;20040;-14
2023/09/06 00:40:21;;;;;;;1.80;1.33;;;22.70;74.40;;;;;;5010930;28;20029;-16
2023/09/06 00:43:07;;;;;;;2.00;1.40;;;22.70;73.90;;;;;;5013553;28;20619;-14
2023/09/06 00:45:46;;;;;;;2.17;1.53;;;22.60;75.90;;;;;;4986786;28;20391;-14
2023/09/06 00:48:19;;;;;;;1.88;1.50;;;22.50;75.10;;;;;;5012703;28;20029;-15
2023/09/06 00:50:51;;;;;;;2.22;1.20;;;22.50;75.00;;;;;;4991657;27;20429;-15
2023/09/06 00:53:20;;;;;;;1.90;1.20;;;22.50;74.40;;;;;;5021743;27;20106;-16
2023/09/06 00:55:48;;;;;;;2.88;1.45;;;22.50;74.40;;;;;;5008082;28;20747;-14
2023/09/06 00:58:16;;;;;;;2.77;1.23;;;22.40;74.30;;;;;;5020445;28;20055;-15
2023/09/06 01:00:46;;;;;;;1.95;1.30;;;22.40;74.50;;;;;;5006400;28;20166;-14
2023/09/06 01:03:12;;;;;;;1.88;1.50;;;22.00;76.40;;;;;;5033132;23;20181;-82
2023/09/06 01:05:58;;;;;;;2.38;1.50;;;22.30;74.50;;;;;;5032868;28;20052;-81
2023/09/06 01:08:51;;;;;;;1.98;1.40;;;22.30;76.30;;;;;;5058265;28;20017;-81
2023/09/06 01:11:21;;;;;;;2.23;1.30;;;22.20;75.30;;;;;;5042640;28;20127;-83
2023/09/06 01:13:49;;;;;;;1.70;1.17;;;22.20;75.40;;;;;;5053323;28;20013;-81
2023/09/06 01:16:29;;;;;;;1.95;1.30;;;22.20;74.90;;;;;;5045505;28;20017;-82
2023/09/06 01:18:56;;;;;;;3.15;1.70;;;22.10;76.20;;;;;;5073914;28;20561;-81
2023/09/06 01:21:33;;;;;;;2.40;1.40;;;22.10;75.00;;;;;;5037756;28;20220;-82
2023/09/06 01:23:59;;;;;;;1.97;1.40;;;22.00;75.40;;;;;;5057916;28;20063;-81
2023/09/06 01:26:26;;;;;;;1.95;1.30;;;22.00;75.20;;;;;;5046188;28;20280;-82
2023/09/06 01:28:52;;;;;;;1.88;1.45;;;22.00;75.30;;;;;;5050511;28;20027;-83
2023/09/06 01:31:18;;;;;;;1.98;1.30;;;21.90;75.30;;;;;;5047093;28;20065;-81
2023/09/06 01:33:44;;;;;;;4.17;1.40;;;21.90;75.30;;;;;;5036920;28;20041;-83
2023/09/06 01:36:10;;;;;;;1.67;1.38;;;21.90;75.40;;;;;;5033270;28;20117;-81
2023/09/06 01:38:35;;;;;;;2.30;1.35;;;21.80;75.40;;;;;;5044784;28;20056;-81
2023/09/06 01:41:03;;;;;;;2.33;1.67;;;21.80;75.40;;;;;;5058987;28;20049;-79
2023/09/06 01:43:31;;;;;;;2.58;1.50;;;21.80;76.00;;;;;;5060377;28;20069;-82
2023/09/06 01:45:56;;;;;;;2.63;1.30;;;21.80;75.80;;;;;;5048384;28;20134;-82
2023/09/06 01:48:23;;;;;;;3.37;1.50;;;21.80;75.90;;;;;;5047595;28;20040;-82
2023/09/06 01:50:49;;;;;;;1.70;1.30;;;21.70;75.90;;;;;;5037981;28;20243;-83
2023/09/06 01:53:15;;;;;;;2.92;1.50;;;21.70;75.90;;;;;;5056278;28;20033;-83
2023/09/06 01:55:43;;;;;;;1.60;1.30;;;21.60;76.00;;;;;;5042548;28;20034;-82
2023/09/06 01:58:11;;;;;;;1.70;1.50;;;21.60;76.60;;;;;;5024729;28;20037;-78
2023/09/06 02:00:37;;;;;;;2.30;1.60;;;21.60;76.30;;;;;;5030807;28;20033;-82
2023/09/06 02:03:09;;;;;;;2.08;1.40;;;21.60;76.10;;;;;;5005349;28;20231;-80
2023/09/06 02:05:36;;;;;;;1.35;1.23;;;21.50;76.30;;;;;;5020165;28;20053;-81
2023/09/06 02:08:04;;;;;;;1.60;1.30;;;21.50;76.20;;;;;;5007391;28;20021;-79
2023/09/06 02:10:30;;;;;;;2.00;1.43;;;21.50;76.30;;;;;;5029156;28;20053;-79
2023/09/06 02:12:56;;;;;;;2.00;1.27;;;21.40;76.30;;;;;;5018360;28;20444;-82
2023/09/06 02:15:23;;;;;;;1.55;1.33;;;21.40;76.40;;;;;;5033660;28;20419;-84
2023/09/06 02:17:48;;;;;;;1.80;1.20;;;21.30;76.50;;;;;;5029570;28;20032;-83
2023/09/06 02:20:21;;;;;;;2.03;1.30;;;21.30;76.50;;;;;;5009040;28;20500;-83
2023/09/06 02:22:51;;;;;;;2.30;1.30;;;21.30;76.60;;;;;;5006761;28;20037;-83
2023/09/06 02:25:21;;;;;;;1.80;1.30;;;21.30;76.70;;;;;;5049271;28;20385;-84
2023/09/06 02:27:47;;;;;;;2.60;1.30;;;21.20;76.70;;;;;;5032043;28;20399;-82
2023/09/06 02:30:14;;;;;;;3.03;1.30;;;21.20;76.70;;;;;;5019071;28;20013;-84
2023/09/06 02:32:43;;;;;;;1.60;1.30;;;21.20;76.90;;;;;;5029609;28;20545;-83
2023/09/06 02:35:09;;;;;;;1.90;1.30;;;21.10;77.00;;;;;;5022152;28;20025;-84
2023/09/06 02:37:35;;;;;;;2.40;1.33;;;21.10;77.10;;;;;;4993907;28;20033;-83
2023/09/06 02:40:17;;;;;;;1.60;1.23;;;21.10;77.20;;;;;;5038847;28;20576;-84
2023/09/06 02:42:45;;;;;;;1.87;1.20;;;21.00;77.20;;;;;;5036813;28;20627;-83
2023/09/06 02:45:11;;;;;;;1.75;1.30;;;21.00;77.20;;;;;;5030195;28;20029;-84
2023/09/06 02:47:48;;;;;;;1.80;1.27;;;20.90;77.30;;;;;;5041196;28;20029;-83
2023/09/06 02:50:22;;;;;;;1.67;1.10;;;20.90;77.40;;;;;;5047374;28;20403;-84
2023/09/06 02:52:50;;;;;;;1.58;1.23;;;20.90;78.10;;;;;;5006747;28;20775;-83
2023/09/06 02:55:17;;;;;;;1.75;1.30;;;20.90;77.50;;;;;;5031262;28;20060;-84
2023/09/06 02:57:43;;;;;;;1.90;1.27;;;20.80;77.60;;;;;;5018569;28;20052;-83
2023/09/06 03:02:50;;;;;;;1.77;1.40;;;20.80;78.00;;;;;;5042546;28;20053;-83
2023/09/06 03:05:17;;;;;;;2.30;1.70;;;20.70;77.90;;;;;;5033840;28;20040;-85
2023/09/06 03:07:49;;;;;;;2.00;1.35;;;20.70;78.10;;;;;;5013949;28;20159;-83
2023/09/06 03:10:19;;;;;;;2.20;1.40;;;20.70;79.30;;;;;;5038384;28;20028;-85
2023/09/06 03:12:46;;;;;;;2.05;1.60;;;;;;;;;;5033415;28;20120;-84
2023/09/06 03:15:13;;;;;;;2.33;1.40;;;20.60;77.80;;;;;;5029847;28;20042;-85
2023/09/06 03:17:39;;;;;;;1.25;1.10;;;20.60;78.50;;;;;;5036604;28;20036;-83
2023/09/06 03:20:18;;;;;;;1.90;1.25;;;20.60;78.50;;;;;;5028902;28;20037;-85
2023/09/06 03:22:50;;;;;;;1.40;1.10;;;20.60;78.60;;;;;;5011178;28;20037;-84
2023/09/06 03:25:16;;;;;;;1.88;1.30;;;20.60;79.20;;;;;;4996811;28;20025;-83
2023/09/06 03:27:42;;;;;;;1.30;1.10;;;20.60;78.80;;;;;;5033917;28;20021;-83
2023/09/06 03:30:09;;;;;;;1.25;1.02;;;20.50;78.80;;;;;;5026851;28;20095;-83
2023/09/06 03:32:35;;;;;;;1.83;1.20;;;20.50;79.00;;;;;;5029580;28;20113;-82
2023/09/06 03:35:04;;;;;;;1.65;1.30;;;20.50;78.90;;;;;;5021804;28;20108;-83
2023/09/06 03:37:30;;;;;;;1.98;1.15;;;20.40;78.90;;;;;;5016008;28;20253;-83
2023/09/06 03:39:57;;;;;;;1.40;1.30;;;20.50;78.90;;;;;;5009001;28;20079;-83
2023/09/06 03:42:23;;;;;;;2.35;1.30;;;20.40;78.90;;;;;;5026887;28;20049;-83
2023/09/06 03:44:49;;;;;;;1.92;1.02;;;20.40;78.90;;;;;;5036487;28;20577;-83
2023/09/06 03:47:16;;;;;;;1.40;1.10;;;20.30;78.90;;;;;;5022594;28;20021;-83
2023/09/06 03:49:43;;;;;;;1.93;1.17;;;20.30;78.80;;;;;;5031106;28;20386;-83
2023/09/06 03:52:16;;;;;;;1.23;1.10;;;20.30;79.00;;;;;;5028309;28;20513;-83
2023/09/06 03:54:42;;;;;;;2.25;1.20;;;20.20;78.90;;;;;;4999649;28;20456;-83
2023/09/06 03:57:08;;;;;;;1.30;1.00;;;20.20;78.90;;;;;;5028149;28;20547;-83
2023/09/06 03:59:37;;;;;;;1.42;1.10;;;20.20;78.90;;;;;;5008622;28;20025;-83
2023/09/06 04:02:07;;;;;;;1.43;1.10;;;20.10;78.90;;;;;;5026101;28;20029;-83
2023/09/06 04:04:34;;;;;;;1.60;1.20;;;20.20;79.00;;;;;;5041743;28;20508;-83
2023/09/06 04:07:01;;;;;;;1.48;1.23;;;20.10;79.10;;;;;;5024065;28;20037;-83
2023/09/06 04:09:37;;;;;;;1.88;1.10;;;20.10;79.30;;;;;;4998452;28;20528;-83
2023/09/06 04:12:05;;;;;;;1.33;1.20;;;20.10;79.40;;;;;;5029259;28;20025;-83
2023/09/06 04:14:35;;;;;;;1.77;1.00;;;20.00;79.40;;;;;;5029831;28;20025;-83
2023/09/06 04:17:01;;;;;;;2.33;1.17;;;19.90;79.40;;;;;;5031610;28;20112;-83
2023/09/06 04:19:27;;;;;;;1.42;1.23;;;19.90;79.50;;;;;;5024193;28;20075;-83
2023/09/06 04:21:53;;;;;;;1.25;1.00;;;19.90;79.60;;;;;;5030774;28;20116;-83
2023/09/06 04:24:20;;;;;;;1.37;0.90;;;19.90;79.70;;;;;;5018016;28;20064;-83
2023/09/06 04:26:46;;;;;;;1.50;1.10;;;19.90;79.80;;;;;;5011348;28;20037;-82
2023/09/06 04:29:12;;;;;;;2.08;1.20;;;19.80;79.90;;;;;;5014712;28;20025;-83
2023/09/06 04:31:41;;;;;;;1.63;1.27;;;19.80;80.00;;;;;;5015313;28;20029;-82
2023/09/06 04:34:07;;;;;;;2.50;1.40;;;19.70;80.00;;;;;;5024344;28;20039;-83
2023/09/06 04:36:36;;;;;;;1.42;1.20;;;19.70;80.10;;;;;;5017429;28;20439;-83
2023/09/06 04:39:03;;;;;;;1.65;1.20;;;19.70;80.90;;;;;;5043238;28;20021;-83
2023/09/06 04:41:31;;;;;;;1.60;1.10;;;18.40;84.10;;;;;;5003870;28;20041;-83
2023/09/06 04:43:57;;;;;;;2.00;1.10;;;19.70;80.20;;;;;;5029455;28;20047;-83
2023/09/06 04:46:22;;;;;;;2.00;1.20;;;19.70;80.30;;;;;;5026323;28;20270;-83
2023/09/06 04:48:48;;;;;;;1.85;1.33;;;19.70;80.30;;;;;;5031440;28;20573;-82
2023/09/06 04:51:14;;;;;;;1.90;1.23;;;19.60;80.40;;;;;;5021939;28;20116;-83
2023/09/06 04:53:41;;;;;;;1.48;1.15;;;19.60;80.40;;;;;;5032446;28;20407;-82
2023/09/06 04:56:07;;;;;;;1.55;1.33;;;19.60;80.60;;;;;;5014246;28;20491;-83
2023/09/06 04:58:33;;;;;;;1.30;1.20;;;19.60;80.60;;;;;;5019273;28;20032;-82
2023/09/06 05:01:06;;;;;;;1.70;1.27;;;19.50;80.60;;;;;;5028961;28;20394;-83
2023/09/06 05:03:33;;;;;;;1.67;1.20;;;19.50;81.20;;;;;;4991832;28;20053;-83
2023/09/06 05:06:00;;;;;;;1.95;1.40;;;19.70;85.60;;;;;;5021952;28;20036;-83
2023/09/06 05:08:26;;;;;;;1.70;1.00;;;19.40;80.80;;;;;;5033441;28;20067;-83
2023/09/06 05:10:52;;;;;;;1.63;1.10;;;19.50;80.90;;;;;;5006490;28;20029;-82
2023/09/06 05:13:18;;;;;;;1.23;1.00;;;19.50;81.00;;;;;;5008350;28;20033;-82
2023/09/06 05:15:44;;;;;;;1.40;1.02;;;19.20;83.10;;;;;;4998902;28;20286;-83
2023/09/06 05:18:10;;;;;;;2.28;1.10;;;19.40;81.20;;;;;;5015532;28;20134;-83
2023/09/06 05:20:38;;;;;;;1.40;1.20;;;19.40;81.30;;;;;;5032006;28;20024;-83
2023/09/06 05:23:05;;;;;;;1.40;1.10;;;19.40;81.50;;;;;;5012350;28;20021;-82
2023/09/06 05:25:32;;;;;;;2.38;1.20;;;19.40;81.60;;;;;;5008683;28;20020;-83
2023/09/06 05:28:01;;;;;;;1.63;1.20;;;19.30;81.60;;;;;;4992645;28;20339;-82
2023/09/06 05:30:27;;;;;;;1.38;1.10;;;19.30;81.90;;;;;;5027169;28;20039;-83
2023/09/06 05:32:57;;;;;;;1.30;1.08;;;19.30;81.90;;;;;;5030700;28;20357;-83
2023/09/06 05:35:24;;;;;;;1.97;1.27;;;19.30;82.40;;;;;;5020177;28;20025;-83
2023/09/06 05:37:50;;;;;;;3.15;1.30;;;19.30;82.10;;;;;;5024658;28;20035;-82
2023/09/06 05:40:26;;;;;;;1.77;1.40;;;19.30;82.20;;;;;;5011487;28;20377;-82
2023/09/06 05:42:52;;;;;;;1.98;1.02;;;19.30;82.70;;;;;;5009734;28;20044;-82
2023/09/06 05:45:21;;;;;;;1.50;1.20;;;19.30;82.60;;;;;;5031580;28;20684;-86
2023/09/06 05:47:47;;;;;;;2.40;1.37;;;19.30;82.70;;;;;;5030554;28;20022;-86
2023/09/06 05:50:14;;;;;;;1.73;1.17;;;19.30;82.80;;;;;;5017160;28;20487;-85
2023/09/06 05:52:40;;;;;;;1.80;1.23;;;19.30;83.00;;;;;;5024086;28;20487;-86
2023/09/06 05:55:06;;;;;;;1.27;1.15;;;19.40;83.10;;;;;;5015299;28;20043;-84
2023/09/06 05:57:33;;;;;;;1.48;1.38;;;19.40;83.20;;;;;;5027924;28;20053;-85
2023/09/06 05:59:59;;;;;;;1.40;1.20;;;19.40;83.40;;;;;;4999205;28;20029;-84
2023/09/06 06:02:25;;;;;;;1.73;1.30;;;19.40;83.50;;;;;;5031463;28;20138;-87
2023/09/06 06:04:52;;;;;;;2.17;1.33;;;19.40;83.60;;;;;;5032470;28;20433;-85
2023/09/06 06:07:19;;;;;;;1.67;1.35;;;19.40;83.70;;;;;;5028148;28;20233;-86
2023/09/06 06:09:45;;;;;;;1.90;1.20;;;19.40;83.80;;;;;;5027876;28;20051;-86
2023/09/06 06:12:11;;;;;;;3.28;1.60;;;19.50;83.90;;;;;;5024917;28;20021;-84
2023/09/06 06:14:37;;;;;;;2.25;1.35;;;19.50;84.10;;;;;;5014743;28;20028;-75
2023/09/06 06:17:08;;;;;;;2.53;1.50;;;19.50;84.30;;;;;;5032200;28;20032;-83
2023/09/06 06:19:37;;;;;;;2.53;1.20;;;19.50;84.90;;;;;;5038723;28;20086;-85
2023/09/06 06:22:03;;;;;;;2.00;1.30;;;19.60;84.90;;;;;;5024255;28;20390;-84
2023/09/06 06:24:30;;;;;;;1.90;1.50;;;19.60;84.70;;;;;;5024525;28;20024;-85
2023/09/06 06:26:56;;;;;;;2.53;1.40;;;19.60;84.90;;;;;;5031972;28;20040;-83
2023/09/06 06:29:22;;;;;;;3.47;1.60;;;19.60;84.90;;;;;;5012770;28;21301;-85
2023/09/06 06:31:48;;;;;;;2.03;1.50;;;19.60;85.00;;;;;;5035330;28;20497;-85
2023/09/06 06:34:15;;;;;;;2.40;1.35;;;19.70;85.00;;;;;;5032597;28;20025;-86
2023/09/06 06:36:41;;;;;;;1.70;1.27;;;19.70;85.20;;;;;;5025334;28;20415;-84
2023/09/06 06:39:07;;;;;;;2.00;1.43;;;19.80;85.30;;;;;;5025122;28;20495;-83
2023/09/06 06:41:33;;;;;;;1.67;1.30;;;19.80;85.50;;;;;;5036505;28;20138;-85
2023/09/06 06:43:59;;;;;;;1.40;1.20;;;19.80;85.40;;;;;;5010063;28;20819;-85
2023/09/06 06:46:32;;;;;;;2.38;1.45;;;19.90;85.60;;;;;;5013622;28;20036;-86
2023/09/06 06:48:59;;;;;;;1.70;1.30;;;19.90;86.10;;;;;;5033567;28;20571;-87
2023/09/06 06:51:26;;;;;;;2.10;1.42;;;20.00;85.80;;;;;;5038299;28;20016;-85
2023/09/06 06:53:52;;;;;;;1.67;1.30;;;20.00;86.00;;;;;;5017283;28;20033;-86
2023/09/06 06:56:21;;;;;;;2.58;1.65;;;20.00;86.00;;;;;;5005735;28;20713;-80
2023/09/06 06:58:48;;;;;;;2.03;1.30;;;20.10;86.20;;;;;;5013464;28;20569;-80
2023/09/06 07:01:14;;;;;;;2.30;1.40;;;20.20;86.40;;;;;;4996406;28;20033;-80
2023/09/06 07:03:40;;;;;;;1.60;1.35;;;20.20;86.60;;;;;;5026649;28;20048;-82
2023/09/06 07:06:08;;;;;;;2.03;1.33;;;20.30;86.80;;;;;;5015170;28;20026;-77
2023/09/06 07:08:35;;;;;;;2.13;1.40;;;20.30;87.10;;;;;;4997260;28;20033;-81
2023/09/06 07:11:04;;;;;;;2.10;1.40;;;20.40;87.20;;;;;;5033460;28;20024;-80
2023/09/06 07:13:31;;;;;;;1.85;1.25;;;20.50;87.40;;;;;;5023644;28;20261;-79
2023/09/06 07:15:58;;;;;;;1.67;1.30;;;20.60;87.70;;;;;;5007995;28;20029;-80
2023/09/06 07:18:25;;;;;;;1.70;1.48;;;20.80;87.80;;;;;;5031749;28;20037;-79
2023/09/06 07:20:51;;;;;;;2.05;1.30;;;20.80;87.70;;;;;;5026853;28;20194;-82
2023/09/06 07:23:17;;;;;;;1.83;1.37;;;20.90;87.80;;;;;;5034224;28;20069;-79
2023/09/06 07:25:46;;;;;;;1.50;1.20;;;21.10;88.00;;;;;;5022194;28;20096;-81
2023/09/06 07:28:13;;;;;;;1.70;1.35;;;21.60;90.80;;;;;;5023334;28;21049;-80
2023/09/06 07:30:40;;;;;;;2.45;1.50;;;21.30;88.70;;;;;;5041258;28;20414;-81
2023/09/06 07:33:06;;;;;;;2.20;1.40;;;21.50;88.90;;;;;;5006399;28;20045;-78
2023/09/06 07:35:32;;;;;;;1.63;1.47;;;21.60;89.00;;;;;;5027591;28;20479;-80
2023/09/06 07:37:58;;;;;;;3.13;1.42;;;21.90;89.10;;;;;;5020010;28;20032;-82
2023/09/06 07:40:24;;;;;;;2.00;1.50;;;22.00;89.10;;;;;;5012174;28;20074;-80
2023/09/06 07:42:50;;;;;;;1.70;1.30;;;22.20;89.50;;;;;;5027322;28;20033;-82
2023/09/06 07:45:16;;;;;;;1.50;1.38;;;22.40;90.00;;;;;;5005009;28;20029;-80
2023/09/06 07:47:43;;;;;;;2.20;1.30;;;22.60;90.10;;;;;;5010891;28;20031;-81
2023/09/06 07:50:09;;;;;;;3.60;1.47;;;22.90;90.30;;;;;;5029272;28;20024;-80
2023/09/06 07:52:38;;;;;;;2.55;1.55;;;23.20;90.50;;;;;;5018614;28;20029;-81
2023/09/06 07:55:05;;;;;;;2.80;1.60;;;23.90;91.00;;;;;;5019228;28;20029;-79
2023/09/06 07:57:31;;;;;;;1.83;1.42;;;23.80;90.90;;;;;;5028698;28;20009;-80
2023/09/06 07:59:57;;;;;;;1.53;1.40;;;24.30;90.80;;;;;;5019640;28;20669;-80
2023/09/06 08:02:22;;;;;;;1.80;1.30;;;24.60;90.80;;;;;;5004046;28;20032;-80
2023/09/06 08:04:50;;;;;;;1.90;1.50;;;24.90;91.10;;;;;;5025992;28;20356;-82
2023/09/06 08:07:17;;;;;;;3.05;1.48;;;25.40;91.50;;;;;;5034025;28;20020;-82
2023/09/06 08:09:43;;;;;;;2.47;1.50;;;25.80;91.60;;;;;;5034954;28;20021;-83
2023/09/06 08:12:09;;;;;;;2.17;1.20;;;26.20;91.60;;;;;;5020005;28;20675;-82
2023/09/06 08:14:35;;;;;;;1.50;1.40;;;26.60;91.90;;;;;;5029151;28;20033;-83
2023/09/06 08:17:02;;;;;;;1.80;1.20;;;27.10;92.30;;;;;;5020598;28;20518;-82
2023/09/06 08:19:30;;;;;;;3.22;1.58;;;27.70;92.40;;;;;;5005924;28;20434;-82
2023/09/06 08:21:56;;;;;;;2.13;1.43;;;28.20;92.40;;;;;;5025595;28;20842;-83
2023/09/06 08:24:21;;;;;;;2.78;1.60;;;28.80;92.20;;;;;;5037272;28;20038;-83
2023/09/06 08:26:50;;;;;;;1.60;1.50;;;29.40;91.90;;;;;;5003823;28;20022;-82
2023/09/06 08:29:16;;;;;;;1.70;1.60;;;30.00;91.50;;;;;;5033839;28;20033;-82
2023/09/06 08:31:42;;;;;;;1.70;1.60;;;30.50;91.00;;;;;;5019782;28;20051;-83
2023/09/06 08:34:10;;;;;;;2.22;1.70;;;31.10;90.70;;;;;;5010402;28;20033;-82
2023/09/06 08:36:36;;;;;;;1.88;1.77;;;31.60;90.20;;;;;;5029667;28;20091;-83
2023/09/06 08:39:02;;;;;;;1.88;1.70;;;32.10;90.00;;;;;;5010670;28;20238;-82
2023/09/06 08:41:29;;;;;;;2.13;1.60;;;32.60;88.50;;;;;;5031272;28;20104;-83
2023/09/06 08:43:55;;;;;;;2.70;1.95;;;33.10;87.40;;;;;;5024469;28;20034;-83
2023/09/06 08:46:29;;;;;;;2.55;2.20;;;33.60;85.90;;;;;;5014504;28;20104;-82
2023/09/06 08:48:57;;;;;;;1.90;1.80;;;34.00;81.70;;;;;;4990058;28;20029;-82
2023/09/06 08:51:23;;;;;;;2.53;2.00;;;34.40;82.70;;;;;;5031819;28;20131;-82
2023/09/06 08:53:49;;;;;;;2.30;2.10;;;34.80;81.30;;;;;;5030125;28;20082;-83
2023/09/06 08:56:15;;;;;;;2.42;2.22;;;35.10;79.80;;;;;;5024959;28;20033;-83
2023/09/06 08:58:41;;;;;;;2.38;2.15;;;35.50;78.40;;;;;;5020174;28;20039;-83
2023/09/06 09:01:08;;;;;;;2.58;2.38;;;35.70;76.70;;;;;;5034523;28;20037;-83
2023/09/06 09:03:34;;;;;;;2.17;1.90;;;35.90;75.50;;;;;;4999364;28;21384;-83
2023/09/06 09:06:01;;;;;;;1.92;1.83;;;36.20;74.70;;;;;;5029764;28;20033;-83
2023/09/06 09:08:31;;;;;;;2.13;1.92;;;36.40;73.60;;;;;;5027254;28;20095;-83
2023/09/06 09:11:18;;;;;;;2.42;2.20;;;36.70;72.20;;;;;;5036195;28;20057;-83
2023/09/06 09:13:45;;;;;;;2.55;2.05;;;37.00;68.00;;;;;;5035897;28;20033;-83
2023/09/06 09:16:15;;;;;;;2.10;1.90;;;37.20;70.80;;;;;;5030168;28;20063;-82
2023/09/06 09:18:43;;;;;;;2.08;1.70;;;37.50;67.80;;;;;;5024151;28;20269;-82
2023/09/06 09:21:11;;;;;;;2.30;1.92;;;37.70;68.30;;;;;;5007462;28;20459;-82
2023/09/06 09:23:49;;;;;;;2.50;2.30;;;37.90;67.00;;;;;;5029575;28;20391;-82
2023/09/06 09:26:19;;;;;;;3.50;2.70;;;38.20;63.30;;;;;;5011833;28;20387;-82
2023/09/06 09:28:45;;;;;;;2.67;2.33;;;38.40;64.60;;;;;;5015127;28;20718;-82
2023/09/06 09:31:13;;;;;;;3.53;2.47;;;38.60;64.50;;;;;;5033041;28;20017;-82
2023/09/06 09:33:40;;;;;;;3.13;2.88;;;38.80;63.10;;;;;;5021004;28;20536;-82
2023/09/06 09:36:07;;;;;;;2.45;2.15;;;39.00;62.50;;;;;;5010601;28;20036;-83
2023/09/06 09:38:33;;;;;;;2.92;2.50;;;39.20;61.40;;;;;;5025811;28;20146;-82
2023/09/06 09:41:06;;;;;;;4.10;2.77;;;39.40;60.10;;;;;;5028167;28;20033;-83
2023/09/06 09:43:33;;;;;;;2.50;2.30;;;39.50;57.20;;;;;;5035400;28;20292;-82
2023/09/06 09:45:59;;;;;;;2.88;2.67;;;39.60;59.40;;;;;;5016395;28;20060;-82
2023/09/06 09:48:31;;;;;;;3.03;2.80;;;39.80;58.90;;;;;;5015096;28;20056;-82
2023/09/06 09:51:01;;;;;;;2.57;2.37;;;39.90;56.90;;;;;;5023773;28;20075;-82
2023/09/06 09:53:30;;;;;;;2.65;2.45;;;40.10;57.20;;;;;;5011989;28;20468;-82
2023/09/06 09:56:06;;;;;;;3.25;2.67;;;40.20;56.20;;;;;;5017449;28;20056;-83
2023/09/06 09:58:36;;;;;;;2.90;2.70;;;40.40;55.50;;;;;;5028661;28;20625;-83
2023/09/06 10:01:05;;;;;;;3.00;2.80;;;40.50;55.60;;;;;;5017937;28;20495;-83
2023/09/06 10:03:33;;;;;;;3.17;2.87;;;40.60;54.90;;;;;;5015309;28;20033;-83
2023/09/06 10:06:03;;;;;;;2.72;2.53;;;40.70;54.10;;;;;;5015263;28;20025;-82
2023/09/06 10:08:32;;;;;;;3.10;2.78;;;40.80;53.60;;;;;;5011752;28;20044;-82
2023/09/06 10:10:59;;;;;;;3.00;2.78;;;41.00;53.00;;;;;;5027257;28;20480;-82
2023/09/06 10:13:26;;;;;;;3.70;2.95;;;41.10;53.60;;;;;;5027022;28;20332;-82
2023/09/06 10:15:56;;;;;;;2.90;2.70;;;41.30;52.90;;;;;;5027925;28;20159;-82
2023/09/06 10:18:22;;;;;;;3.00;2.80;;;41.40;51.80;;;;;;5020986;28;20332;-82
2023/09/06 10:20:48;;;;;;;3.50;3.20;;;41.60;51.60;;;;;;5025178;28;20391;-83
2023/09/06 10:23:14;;;;;;;3.22;2.92;;;41.70;51.00;;;;;;4993591;28;20061;-83
2023/09/06 10:25:41;;;;;;;3.63;3.07;;;41.80;50.90;;;;;;5017422;28;20579;-79
2023/09/06 10:28:08;;;;;;;3.22;2.85;;;41.90;50.10;;;;;;5035779;28;20025;-82
2023/09/06 10:30:40;;;;;;;3.10;2.90;;;42.00;50.10;;;;;;5035431;28;20233;-80
2023/09/06 10:33:08;;;;;;;3.63;2.67;;;42.00;49.60;;;;;;5019281;28;20080;-83
2023/09/06 10:35:41;;;;;;;3.30;3.00;;;42.10;49.30;;;;;;5019175;28;20240;-80
2023/09/06 10:38:16;;;;;;;2.57;2.37;;;42.20;47.10;;;;;;5000811;28;20044;-80
2023/09/06 10:40:48;;;;;;;3.25;2.95;;;42.30;48.30;;;;;;5037896;28;20399;-80
2023/09/06 10:43:15;;;;;;;3.13;2.92;;;42.40;47.40;;;;;;5026760;28;20037;-83
2023/09/06 10:45:53;;;;;;;3.28;2.97;;;42.50;47.80;;;;;;5021433;28;20017;-82
2023/09/06 10:48:19;;;;;;;3.40;3.10;;;42.60;47.90;;;;;;5024577;28;20028;-80
2023/09/06 10:51:07;;;;;;;3.13;2.87;;;42.70;47.40;;;;;;5002892;28;20412;-81
2023/09/06 10:53:37;;;;;;;3.30;3.00;;;42.90;45.60;;;;;;5016553;28;20039;-83
2023/09/06 10:56:05;;;;;;;3.40;3.20;;;43.00;45.50;;;;;;5027483;28;20430;-80
2023/09/06 10:58:34;;;;;;;2.95;2.75;;;43.20;46.10;;;;;;5025864;28;20415;-82
2023/09/06 11:01:18;;;;;;;2.90;2.70;;;43.30;45.00;;;;;;5033406;28;20140;-80
2023/09/06 11:03:50;;;;;;;2.53;2.33;;;43.40;43.30;;;;;;5008541;28;20112;-81
2023/09/06 11:06:18;;;;;;;3.00;2.80;;;43.50;43.20;;;;;;5034324;28;20494;-83
2023/09/06 11:08:46;;;;;;;3.22;2.80;;;43.60;44.30;;;;;;5005928;28;20666;-79
2023/09/06 11:11:13;;;;;;;3.13;2.92;;;43.60;43.90;;;;;;5028580;28;20483;-80
2023/09/06 11:13:42;;;;;;;3.30;3.10;;;43.60;43.40;;;;;;5020833;28;20196;-80
2023/09/06 11:16:13;;;;;;;3.47;3.17;;;43.70;43.20;;;;;;5037822;28;20098;-80
2023/09/06 11:18:44;;;;;;;3.10;2.90;;;43.80;42.40;;;;;;5019751;28;20288;-80
2023/09/06 11:21:14;;;;;;;3.40;3.20;;;43.80;41.90;;;;;;5036244;28;20051;-81
2023/09/06 11:23:48;;;;;;;3.78;3.40;;;43.80;42.70;;;;;;5004935;28;21228;-80
2023/09/06 11:26:14;;;;;;;3.40;3.20;;;43.90;41.80;;;;;;5014091;28;20100;-82
2023/09/06 11:28:42;;;;;;;3.33;3.13;;;44.00;42.40;;;;;;5012465;28;20528;-81
2023/09/06 11:31:33;;;;;;;3.15;2.95;;;44.10;41.50;;;;;;5029164;28;20029;-80
2023/09/06 11:34:05;;;;;;;3.50;3.30;;;44.10;40.00;;;;;;5028506;28;20022;-79
2023/09/06 11:36:35;;;;;;;3.80;3.50;;;44.20;40.60;;;;;;5038042;28;20056;-83
2023/09/06 11:39:16;;;;;;;3.90;3.17;;;44.20;41.30;;;;;;5032918;28;20029;-82
2023/09/06 11:41:43;;;;;;;3.55;3.25;;;44.30;40.90;;;;;;5038053;28;20021;-82
2023/09/06 11:44:13;;;;;;;3.97;3.10;;;44.40;40.70;;;;;;5054431;28;20263;-83
2023/09/06 11:46:42;;;;;;;3.60;3.40;;;44.40;40.60;;;;;;5048459;28;20075;-83
2023/09/06 11:49:08;;;;;;;3.47;3.22;;;44.50;40.60;;;;;;5057497;28;20030;-85
2023/09/06 11:51:34;;;;;;;3.37;3.17;;;44.60;40.30;;;;;;5047344;28;20024;-85
2023/09/06 11:54:09;;;;;;;2.97;2.70;;;44.60;40.20;;;;;;5056435;28;20146;-83
2023/09/06 11:56:39;;;;;;;2.92;2.72;;;44.70;39.70;;;;;;5033183;28;20494;-82
2023/09/06 11:59:12;;;;;;;3.60;3.30;;;44.70;39.70;;;;;;5018174;28;20037;-83
2023/09/06 12:01:43;;;;;;;3.70;3.40;;;44.80;39.10;;;;;;5043356;28;20036;-82
2023/09/06 12:04:20;;;;;;;3.38;3.17;;;44.80;38.80;;;;;;5036930;28;20353;-83
2023/09/06 12:06:51;;;;;;;3.10;2.90;;;44.80;39.10;;;;;;5047418;28;20166;-83
2023/09/06 12:09:18;;;;;;;2.90;2.70;;;44.90;38.60;;;;;;5071641;28;20029;-83
2023/09/06 12:11:45;;;;;;;3.35;3.08;;;44.90;38.60;;;;;;5033084;28;20051;-83
2023/09/06 12:14:12;;;;;;;3.10;2.90;;;44.90;38.40;;;;;;5062018;28;20124;-84
2023/09/06 12:16:40;;;;;;;3.35;3.05;;;45.00;38.10;;;;;;5042077;28;20083;-83
2023/09/06 12:19:13;;;;;;;3.30;3.10;;;44.90;37.70;;;;;;5036281;28;20215;-83
2023/09/06 12:21:39;;;;;;;3.10;2.90;;;45.00;36.40;;;;;;5061403;28;20025;-83
2023/09/06 12:24:06;;;;;;;3.17;2.97;;;45.00;37.40;;;;;;5060517;28;20127;-85
2023/09/06 12:26:33;;;;;;;3.47;3.25;;;45.00;37.50;;;;;;5063461;28;20022;-83
2023/09/06 12:28:58;;;;;;;3.40;3.10;;;45.00;37.30;;;;;;5049793;28;20037;-83
2023/09/06 12:31:24;;;;;;;3.30;3.10;;;45.00;37.30;;;;;;5050761;28;20043;-83
2023/09/06 12:33:51;;;;;;;2.87;2.67;;;45.00;36.90;;;;;;5050280;28;20307;-83
2023/09/06 12:36:18;;;;;;;3.58;3.38;;;45.00;36.60;;;;;;5049944;28;20029;-84
2023/09/06 12:38:44;;;;;;;3.33;3.03;;;45.00;36.50;;;;;;5044643;28;20097;-82
2023/09/06 12:41:11;;;;;;;3.17;2.97;;;45.00;36.70;;;;;;5063801;28;20025;-83
2023/09/06 12:43:37;;;;;;;3.53;2.83;;;45.00;36.30;;;;;;5036829;28;20025;-83
2023/09/06 12:46:11;;;;;;;3.30;3.00;;;45.00;36.20;;;;;;5051604;28;20041;-84
2023/09/06 12:48:37;;;;;;;3.35;3.15;;;45.00;36.40;;;;;;5050043;28;20259;-84
2023/09/06 12:51:05;;;;;;;3.13;2.92;;;45.00;36.20;;;;;;5056984;28;20033;-84
2023/09/06 12:53:32;;;;;;;3.30;2.93;;;45.00;36.10;;;;;;5057457;28;20041;-84
2023/09/06 12:55:58;;;;;;;2.65;2.45;;;45.00;35.70;;;;;;5059608;28;20025;-84